sensor_id;sensor_type;location;lat;lon;timestamp;P1;durP1;ratioP1;P2;durP2;ratioP2
3309;SDS011;1667;53.238;10.394;2023-07-02T00:02:45;5.17;;;2.23;;
3309;SDS011;1667;53.238;10.394;2023-07-02T00:07:44;3.10;;;2.20;;
3309;SDS011;1667;53.238;10.394;2023-07-02T00:12:43;4.97;;;2.60;;
3309;SDS011;1667;53.238;10.394;2023-07-02T00:17:41;3.60;;;2.60;;
3309;SDS011;1667;53.238;10.394;2023-07-02T00:22:41;4.50;;;2.37;;
3309;SDS011;1667;53.238;10.394;2023-07-02T00:27:42;2.20;;;2.00;;
3309;SDS011;1667;53.238;10.394;2023-07-02T00:32:41;4.60;;;2.50;;
3309;SDS011;1667;53.238;10.394;2023-07-02T00:37:42;3.00;;;2.57;;
3309;SDS011;1667;53.238;10.394;2023-07-02T00:42:41;6.53;;;2.60;;
3309;SDS011;1667;53.238;10.394;2023-07-02T00:47:39;2.30;;;2.10;;
3309;SDS011;1667;53.238;10.394;2023-07-02T00:52:39;4.60;;;2.10;;
3309;SDS011;1667;53.238;10.394;2023-07-02T00:57:39;2.40;;;2.00;;
3309;SDS011;1667;53.238;10.394;2023-07-02T01:02:43;2.07;;;1.97;;
3309;SDS011;1667;53.238;10.394;2023-07-02T01:07:55;6.83;;;2.07;;
3309;SDS011;1667;53.238;10.394;2023-07-02T01:12:54;2.10;;;2.00;;
3309;SDS011;1667;53.238;10.394;2023-07-02T01:17:53;2.20;;;1.97;;
3309;SDS011;1667;53.238;10.394;2023-07-02T01:22:54;3.30;;;2.73;;
3309;SDS011;1667;53.238;10.394;2023-07-02T01:27:53;2.57;;;2.37;;
3309;SDS011;1667;53.238;10.394;2023-07-02T01:32:53;3.50;;;2.20;;
3309;SDS011;1667;53.238;10.394;2023-07-02T01:37:51;2.77;;;2.50;;
3309;SDS011;1667;53.238;10.394;2023-07-02T01:42:52;3.07;;;2.10;;
3309;SDS011;1667;53.238;10.394;2023-07-02T01:47:51;2.00;;;1.90;;
3309;SDS011;1667;53.238;10.394;2023-07-02T01:52:49;4.10;;;2.00;;
3309;SDS011;1667;53.238;10.394;2023-07-02T01:57:48;6.93;;;3.20;;
3309;SDS011;1667;53.238;10.394;2023-07-02T02:02:48;4.33;;;2.67;;
3309;SDS011;1667;53.238;10.394;2023-07-02T02:07:47;2.50;;;2.30;;
3309;SDS011;1667;53.238;10.394;2023-07-02T02:12:46;1.60;;;1.40;;
3309;SDS011;1667;53.238;10.394;2023-07-02T02:17:44;5.03;;;2.90;;
3309;SDS011;1667;53.238;10.394;2023-07-02T02:22:44;6.03;;;2.60;;
3309;SDS011;1667;53.238;10.394;2023-07-02T02:27:43;4.00;;;2.60;;
3309;SDS011;1667;53.238;10.394;2023-07-02T02:32:41;4.27;;;2.00;;
3309;SDS011;1667;53.238;10.394;2023-07-02T02:37:41;3.93;;;2.40;;
3309;SDS011;1667;53.238;10.394;2023-07-02T02:42:41;3.60;;;2.30;;
3309;SDS011;1667;53.238;10.394;2023-07-02T02:47:40;2.20;;;2.00;;
3309;SDS011;1667;53.238;10.394;2023-07-02T02:52:38;6.73;;;2.30;;
3309;SDS011;1667;53.238;10.394;2023-07-02T02:57:37;6.27;;;2.40;;
3309;SDS011;1667;53.238;10.394;2023-07-02T03:02:37;4.97;;;2.23;;
3309;SDS011;1667;53.238;10.394;2023-07-02T03:07:35;5.33;;;2.70;;
3309;SDS011;1667;53.238;10.394;2023-07-02T03:12:34;3.90;;;2.33;;
3309;SDS011;1667;53.238;10.394;2023-07-02T03:17:33;3.10;;;2.37;;
3309;SDS011;1667;53.238;10.394;2023-07-02T03:22:33;2.53;;;2.33;;
3309;SDS011;1667;53.238;10.394;2023-07-02T03:27:32;4.47;;;2.33;;
3309;SDS011;1667;53.238;10.394;2023-07-02T03:32:30;2.57;;;2.37;;
3309;SDS011;1667;53.238;10.394;2023-07-02T03:37:29;2.63;;;2.33;;
3309;SDS011;1667;53.238;10.394;2023-07-02T03:42:29;2.87;;;2.67;;
3309;SDS011;1667;53.238;10.394;2023-07-02T03:47:30;2.70;;;2.07;;
3309;SDS011;1667;53.238;10.394;2023-07-02T03:52:28;5.73;;;3.10;;
3309;SDS011;1667;53.238;10.394;2023-07-02T03:57:28;3.37;;;2.80;;
3309;SDS011;1667;53.238;10.394;2023-07-02T04:02:27;4.30;;;2.43;;
3309;SDS011;1667;53.238;10.394;2023-07-02T04:07:25;3.13;;;2.70;;
3309;SDS011;1667;53.238;10.394;2023-07-02T04:12:25;5.27;;;3.40;;
3309;SDS011;1667;53.238;10.394;2023-07-02T04:17:24;5.43;;;3.73;;
3309;SDS011;1667;53.238;10.394;2023-07-02T04:22:23;6.00;;;2.90;;
3309;SDS011;1667;53.238;10.394;2023-07-02T04:27:22;3.83;;;3.13;;
3309;SDS011;1667;53.238;10.394;2023-07-02T04:32:42;4.67;;;3.00;;
3309;SDS011;1667;53.238;10.394;2023-07-02T04:37:40;3.67;;;3.13;;
3309;SDS011;1667;53.238;10.394;2023-07-02T04:48:31;6.60;;;3.43;;
3309;SDS011;1667;53.238;10.394;2023-07-02T04:53:30;7.57;;;3.40;;
3309;SDS011;1667;53.238;10.394;2023-07-02T04:58:28;7.70;;;3.67;;
3309;SDS011;1667;53.238;10.394;2023-07-02T05:03:27;7.50;;;3.93;;
3309;SDS011;1667;53.238;10.394;2023-07-02T05:08:27;5.63;;;3.73;;
3309;SDS011;1667;53.238;10.394;2023-07-02T05:13:25;9.17;;;3.87;;
3309;SDS011;1667;53.238;10.394;2023-07-02T05:18:24;7.07;;;3.83;;
3309;SDS011;1667;53.238;10.394;2023-07-02T05:23:30;5.23;;;3.20;;
3309;SDS011;1667;53.238;10.394;2023-07-02T05:28:28;8.80;;;3.87;;
3309;SDS011;1667;53.238;10.394;2023-07-02T05:33:27;11.30;;;4.30;;
3309;SDS011;1667;53.238;10.394;2023-07-02T05:38:27;6.57;;;4.10;;
3309;SDS011;1667;53.238;10.394;2023-07-02T05:43:27;15.03;;;4.70;;
3309;SDS011;1667;53.238;10.394;2023-07-02T05:48:26;7.10;;;4.87;;
3309;SDS011;1667;53.238;10.394;2023-07-02T05:53:24;7.93;;;4.43;;
3309;SDS011;1667;53.238;10.394;2023-07-02T05:58:24;10.37;;;4.10;;
3309;SDS011;1667;53.238;10.394;2023-07-02T06:03:38;10.07;;;4.63;;
3309;SDS011;1667;53.238;10.394;2023-07-02T06:08:37;18.60;;;4.77;;
3309;SDS011;1667;53.238;10.394;2023-07-02T06:13:36;7.20;;;3.40;;
3309;SDS011;1667;53.238;10.394;2023-07-02T06:18:35;7.60;;;4.47;;
3309;SDS011;1667;53.238;10.394;2023-07-02T06:23:39;10.50;;;4.67;;
3309;SDS011;1667;53.238;10.394;2023-07-02T06:28:40;11.60;;;4.10;;
3309;SDS011;1667;53.238;10.394;2023-07-02T06:33:39;11.67;;;5.60;;
3309;SDS011;1667;53.238;10.394;2023-07-02T06:45:35;11.20;;;4.87;;
3309;SDS011;1667;53.238;10.394;2023-07-02T06:50:33;12.90;;;3.43;;
3309;SDS011;1667;53.238;10.394;2023-07-02T06:55:32;12.90;;;5.37;;
3309;SDS011;1667;53.238;10.394;2023-07-02T07:00:31;12.00;;;4.77;;
3309;SDS011;1667;53.238;10.394;2023-07-02T07:05:33;14.70;;;5.40;;
3309;SDS011;1667;53.238;10.394;2023-07-02T07:10:31;11.80;;;5.63;;
3309;SDS011;1667;53.238;10.394;2023-07-02T07:15:32;16.03;;;4.90;;
3309;SDS011;1667;53.238;10.394;2023-07-02T07:20:33;18.10;;;4.60;;
3309;SDS011;1667;53.238;10.394;2023-07-02T07:25:31;16.27;;;4.73;;
3309;SDS011;1667;53.238;10.394;2023-07-02T07:30:30;13.80;;;5.40;;
3309;SDS011;1667;53.238;10.394;2023-07-02T07:35:29;11.00;;;4.40;;
3309;SDS011;1667;53.238;10.394;2023-07-02T07:40:29;14.80;;;5.90;;
3309;SDS011;1667;53.238;10.394;2023-07-02T07:45:27;7.63;;;4.23;;
3309;SDS011;1667;53.238;10.394;2023-07-02T07:50:26;11.00;;;4.07;;
3309;SDS011;1667;53.238;10.394;2023-07-02T07:55:24;8.83;;;5.13;;
3309;SDS011;1667;53.238;10.394;2023-07-02T08:00:24;13.33;;;4.10;;
3309;SDS011;1667;53.238;10.394;2023-07-02T08:05:23;12.17;;;5.23;;
3309;SDS011;1667;53.238;10.394;2023-07-02T08:10:22;11.07;;;4.73;;
3309;SDS011;1667;53.238;10.394;2023-07-02T08:15:21;11.27;;;5.43;;
3309;SDS011;1667;53.238;10.394;2023-07-02T08:20:21;12.00;;;5.47;;
3309;SDS011;1667;53.238;10.394;2023-07-02T08:25:20;17.40;;;5.00;;
3309;SDS011;1667;53.238;10.394;2023-07-02T08:30:19;9.10;;;5.23;;
3309;SDS011;1667;53.238;10.394;2023-07-02T08:35:17;11.03;;;5.00;;
3309;SDS011;1667;53.238;10.394;2023-07-02T08:40:18;7.23;;;4.57;;
3309;SDS011;1667;53.238;10.394;2023-07-02T08:45:16;11.63;;;4.07;;
3309;SDS011;1667;53.238;10.394;2023-07-02T08:50:15;7.57;;;3.77;;
3309;SDS011;1667;53.238;10.394;2023-07-02T08:55:14;7.83;;;4.30;;
3309;SDS011;1667;53.238;10.394;2023-07-02T09:00:14;10.10;;;4.33;;
3309;SDS011;1667;53.238;10.394;2023-07-02T09:05:13;10.90;;;4.60;;
3309;SDS011;1667;53.238;10.394;2023-07-02T09:10:12;7.47;;;3.63;;
3309;SDS011;1667;53.238;10.394;2023-07-02T09:15:24;11.17;;;3.97;;
3309;SDS011;1667;53.238;10.394;2023-07-02T09:20:23;9.60;;;4.07;;
3309;SDS011;1667;53.238;10.394;2023-07-02T09:25:33;6.90;;;3.80;;
3309;SDS011;1667;53.238;10.394;2023-07-02T09:30:35;8.60;;;4.80;;
3309;SDS011;1667;53.238;10.394;2023-07-02T09:35:34;15.57;;;4.67;;
3309;SDS011;1667;53.238;10.394;2023-07-02T09:40:35;9.97;;;4.90;;
3309;SDS011;1667;53.238;10.394;2023-07-02T09:45:37;8.03;;;4.13;;
3309;SDS011;1667;53.238;10.394;2023-07-02T09:50:36;6.73;;;3.93;;
3309;SDS011;1667;53.238;10.394;2023-07-02T09:55:35;7.67;;;3.23;;
3309;SDS011;1667;53.238;10.394;2023-07-02T10:00:34;8.70;;;3.80;;
3309;SDS011;1667;53.238;10.394;2023-07-02T10:05:34;17.73;;;4.83;;
3309;SDS011;1667;53.238;10.394;2023-07-02T10:10:33;11.70;;;3.70;;
3309;SDS011;1667;53.238;10.394;2023-07-02T10:15:31;8.50;;;5.00;;
3309;SDS011;1667;53.238;10.394;2023-07-02T10:20:36;6.10;;;3.93;;
3309;SDS011;1667;53.238;10.394;2023-07-02T10:25:36;5.47;;;2.70;;
3309;SDS011;1667;53.238;10.394;2023-07-02T10:30:36;7.40;;;3.57;;
3309;SDS011;1667;53.238;10.394;2023-07-02T10:35:37;7.40;;;4.33;;
3309;SDS011;1667;53.238;10.394;2023-07-02T10:40:38;6.87;;;2.80;;
3309;SDS011;1667;53.238;10.394;2023-07-02T10:45:36;3.57;;;2.23;;
3309;SDS011;1667;53.238;10.394;2023-07-02T10:50:37;4.00;;;2.97;;
3309;SDS011;1667;53.238;10.394;2023-07-02T10:55:35;5.23;;;2.40;;
3309;SDS011;1667;53.238;10.394;2023-07-02T11:00:42;9.93;;;3.80;;
3309;SDS011;1667;53.238;10.394;2023-07-02T11:05:43;8.03;;;4.33;;
3309;SDS011;1667;53.238;10.394;2023-07-02T11:10:43;9.40;;;3.83;;
3309;SDS011;1667;53.238;10.394;2023-07-02T11:15:41;12.07;;;4.30;;
3309;SDS011;1667;53.238;10.394;2023-07-02T11:20:45;9.80;;;3.50;;
3309;SDS011;1667;53.238;10.394;2023-07-02T11:25:53;7.77;;;3.50;;
3309;SDS011;1667;53.238;10.394;2023-07-02T11:30:53;7.17;;;3.33;;
3309;SDS011;1667;53.238;10.394;2023-07-02T11:35:54;6.53;;;3.13;;
3309;SDS011;1667;53.238;10.394;2023-07-02T11:40:52;5.67;;;3.07;;
3309;SDS011;1667;53.238;10.394;2023-07-02T11:45:51;8.73;;;3.40;;
3309;SDS011;1667;53.238;10.394;2023-07-02T11:50:49;5.00;;;2.97;;
3309;SDS011;1667;53.238;10.394;2023-07-02T11:55:49;4.43;;;3.30;;
3309;SDS011;1667;53.238;10.394;2023-07-02T12:00:48;5.20;;;2.97;;
3309;SDS011;1667;53.238;10.394;2023-07-02T12:05:47;3.47;;;2.50;;
3309;SDS011;1667;53.238;10.394;2023-07-02T12:10:45;5.33;;;1.80;;
3309;SDS011;1667;53.238;10.394;2023-07-02T12:15:46;4.63;;;3.07;;
3309;SDS011;1667;53.238;10.394;2023-07-02T12:20:46;4.23;;;1.50;;
3309;SDS011;1667;53.238;10.394;2023-07-02T12:25:44;7.17;;;3.50;;
3309;SDS011;1667;53.238;10.394;2023-07-02T12:30:44;4.83;;;2.60;;
3309;SDS011;1667;53.238;10.394;2023-07-02T12:35:44;4.77;;;3.40;;
3309;SDS011;1667;53.238;10.394;2023-07-02T12:40:42;5.00;;;3.13;;
3309;SDS011;1667;53.238;10.394;2023-07-02T12:45:41;5.80;;;2.70;;
3309;SDS011;1667;53.238;10.394;2023-07-02T12:50:41;3.63;;;2.40;;
3309;SDS011;1667;53.238;10.394;2023-07-02T12:55:39;15.03;;;4.43;;
3309;SDS011;1667;53.238;10.394;2023-07-02T13:00:38;3.83;;;2.30;;
3309;SDS011;1667;53.238;10.394;2023-07-02T13:11:08;6.63;;;2.80;;
3309;SDS011;1667;53.238;10.394;2023-07-02T13:16:07;32.33;;;3.13;;
3309;SDS011;1667;53.238;10.394;2023-07-02T13:21:05;7.13;;;2.43;;
3309;SDS011;1667;53.238;10.394;2023-07-02T13:26:05;2.20;;;1.97;;
3309;SDS011;1667;53.238;10.394;2023-07-02T13:31:04;4.33;;;2.73;;
3309;SDS011;1667;53.238;10.394;2023-07-02T13:36:03;3.47;;;2.43;;
3309;SDS011;1667;53.238;10.394;2023-07-02T13:41:02;8.17;;;2.70;;
3309;SDS011;1667;53.238;10.394;2023-07-02T13:46:02;11.10;;;2.90;;
3309;SDS011;1667;53.238;10.394;2023-07-02T13:51:01;2.73;;;1.50;;
3309;SDS011;1667;53.238;10.394;2023-07-02T13:55:59;1.43;;;1.33;;
3309;SDS011;1667;53.238;10.394;2023-07-02T14:00:59;6.63;;;2.10;;
3309;SDS011;1667;53.238;10.394;2023-07-02T14:05:58;3.37;;;1.77;;
3309;SDS011;1667;53.238;10.394;2023-07-02T14:10:57;4.80;;;2.23;;
3309;SDS011;1667;53.238;10.394;2023-07-02T14:15:55;7.23;;;2.20;;
3309;SDS011;1667;53.238;10.394;2023-07-02T14:20:55;11.97;;;2.40;;
3309;SDS011;1667;53.238;10.394;2023-07-02T14:25:54;5.60;;;1.90;;
3309;SDS011;1667;53.238;10.394;2023-07-02T14:37:42;3.90;;;2.00;;
3309;SDS011;1667;53.238;10.394;2023-07-02T14:42:41;4.37;;;2.37;;
3309;SDS011;1667;53.238;10.394;2023-07-02T14:47:39;3.50;;;2.20;;
3309;SDS011;1667;53.238;10.394;2023-07-02T14:52:38;6.83;;;2.47;;
3309;SDS011;1667;53.238;10.394;2023-07-02T14:57:38;6.37;;;2.10;;
3309;SDS011;1667;53.238;10.394;2023-07-02T15:02:36;4.47;;;2.50;;
3309;SDS011;1667;53.238;10.394;2023-07-02T15:07:35;4.27;;;2.60;;
3309;SDS011;1667;53.238;10.394;2023-07-02T15:12:33;3.23;;;2.37;;
3309;SDS011;1667;53.238;10.394;2023-07-02T15:17:33;4.10;;;2.13;;
3309;SDS011;1667;53.238;10.394;2023-07-02T15:22:32;3.37;;;2.47;;
3309;SDS011;1667;53.238;10.394;2023-07-02T15:27:30;3.70;;;2.90;;
3309;SDS011;1667;53.238;10.394;2023-07-02T15:32:29;4.47;;;2.40;;
3309;SDS011;1667;53.238;10.394;2023-07-02T15:37:29;6.07;;;3.27;;
3309;SDS011;1667;53.238;10.394;2023-07-02T15:42:28;6.60;;;2.37;;
3309;SDS011;1667;53.238;10.394;2023-07-02T15:47:28;7.87;;;3.33;;
3309;SDS011;1667;53.238;10.394;2023-07-02T15:52:30;4.17;;;2.20;;
3309;SDS011;1667;53.238;10.394;2023-07-02T15:57:29;5.17;;;2.40;;
3309;SDS011;1667;53.238;10.394;2023-07-02T16:02:27;6.40;;;2.73;;
3309;SDS011;1667;53.238;10.394;2023-07-02T16:07:26;4.67;;;2.50;;
3309;SDS011;1667;53.238;10.394;2023-07-02T16:12:26;4.60;;;2.93;;
3309;SDS011;1667;53.238;10.394;2023-07-02T16:17:24;3.13;;;2.13;;
3309;SDS011;1667;53.238;10.394;2023-07-02T16:22:23;5.33;;;2.20;;
3309;SDS011;1667;53.238;10.394;2023-07-02T16:27:22;6.23;;;2.20;;
3309;SDS011;1667;53.238;10.394;2023-07-02T16:32:22;5.90;;;2.67;;
3309;SDS011;1667;53.238;10.394;2023-07-02T16:37:23;3.10;;;2.40;;
3309;SDS011;1667;53.238;10.394;2023-07-02T16:42:22;8.17;;;2.70;;
3309;SDS011;1667;53.238;10.394;2023-07-02T16:47:21;5.33;;;2.70;;
3309;SDS011;1667;53.238;10.394;2023-07-02T16:52:20;6.27;;;1.93;;
3309;SDS011;1667;53.238;10.394;2023-07-02T16:57:19;6.43;;;2.30;;
3309;SDS011;1667;53.238;10.394;2023-07-02T17:02:17;5.63;;;2.23;;
3309;SDS011;1667;53.238;10.394;2023-07-02T17:07:17;4.53;;;2.97;;
3309;SDS011;1667;53.238;10.394;2023-07-02T17:12:16;4.30;;;2.03;;
3309;SDS011;1667;53.238;10.394;2023-07-02T17:17:17;7.33;;;2.50;;
3309;SDS011;1667;53.238;10.394;2023-07-02T17:22:20;6.00;;;2.20;;
3309;SDS011;1667;53.238;10.394;2023-07-02T17:27:20;4.17;;;1.70;;
3309;SDS011;1667;53.238;10.394;2023-07-02T17:32:21;5.50;;;2.93;;
3309;SDS011;1667;53.238;10.394;2023-07-02T17:37:22;3.70;;;2.00;;
3309;SDS011;1667;53.238;10.394;2023-07-02T17:42:21;4.67;;;2.10;;
3309;SDS011;1667;53.238;10.394;2023-07-02T17:47:19;4.80;;;2.67;;
3309;SDS011;1667;53.238;10.394;2023-07-02T17:52:19;5.87;;;2.13;;
3309;SDS011;1667;53.238;10.394;2023-07-02T17:57:19;3.30;;;3.00;;
3309;SDS011;1667;53.238;10.394;2023-07-02T18:02:18;3.67;;;2.43;;
3309;SDS011;1667;53.238;10.394;2023-07-02T18:07:18;5.50;;;2.47;;
3309;SDS011;1667;53.238;10.394;2023-07-02T18:12:19;4.80;;;2.00;;
3309;SDS011;1667;53.238;10.394;2023-07-02T18:17:20;6.60;;;2.37;;
3309;SDS011;1667;53.238;10.394;2023-07-02T18:22:19;8.83;;;2.90;;
3309;SDS011;1667;53.238;10.394;2023-07-02T18:27:19;5.17;;;2.20;;
3309;SDS011;1667;53.238;10.394;2023-07-02T18:32:18;4.60;;;2.50;;
3309;SDS011;1667;53.238;10.394;2023-07-02T18:37:17;3.80;;;2.27;;
3309;SDS011;1667;53.238;10.394;2023-07-02T18:42:16;6.43;;;3.20;;
3309;SDS011;1667;53.238;10.394;2023-07-02T18:47:19;6.43;;;3.33;;
3309;SDS011;1667;53.238;10.394;2023-07-02T18:52:19;4.90;;;2.47;;
3309;SDS011;1667;53.238;10.394;2023-07-02T18:57:17;6.03;;;3.50;;
3309;SDS011;1667;53.238;10.394;2023-07-02T19:02:16;6.53;;;3.07;;
3309;SDS011;1667;53.238;10.394;2023-07-02T19:07:16;9.00;;;2.60;;
3309;SDS011;1667;53.238;10.394;2023-07-02T19:12:14;6.73;;;3.23;;
3309;SDS011;1667;53.238;10.394;2023-07-02T19:17:13;3.10;;;2.70;;
3309;SDS011;1667;53.238;10.394;2023-07-02T19:22:17;7.33;;;3.30;;
3309;SDS011;1667;53.238;10.394;2023-07-02T19:27:18;10.27;;;3.70;;
3309;SDS011;1667;53.238;10.394;2023-07-02T19:32:16;4.67;;;2.93;;
3309;SDS011;1667;53.238;10.394;2023-07-02T19:37:15;3.83;;;3.10;;
3309;SDS011;1667;53.238;10.394;2023-07-02T19:42:15;5.37;;;3.20;;
3309;SDS011;1667;53.238;10.394;2023-07-02T19:47:13;8.97;;;3.53;;
3309;SDS011;1667;53.238;10.394;2023-07-02T19:52:12;6.20;;;3.70;;
3309;SDS011;1667;53.238;10.394;2023-07-02T19:57:12;7.37;;;3.10;;
3309;SDS011;1667;53.238;10.394;2023-07-02T20:02:13;6.67;;;2.83;;
3309;SDS011;1667;53.238;10.394;2023-07-02T20:07:15;5.60;;;3.23;;
3309;SDS011;1667;53.238;10.394;2023-07-02T20:12:14;9.37;;;3.30;;
3309;SDS011;1667;53.238;10.394;2023-07-02T20:17:14;5.23;;;2.80;;
3309;SDS011;1667;53.238;10.394;2023-07-02T20:22:15;6.20;;;3.37;;
3309;SDS011;1667;53.238;10.394;2023-07-02T20:27:14;6.73;;;3.30;;
3309;SDS011;1667;53.238;10.394;2023-07-02T20:32:18;4.40;;;3.00;;
3309;SDS011;1667;53.238;10.394;2023-07-02T20:37:19;11.17;;;4.00;;
3309;SDS011;1667;53.238;10.394;2023-07-02T20:42:18;4.63;;;3.27;;
3309;SDS011;1667;53.238;10.394;2023-07-02T20:47:20;4.70;;;3.13;;
3309;SDS011;1667;53.238;10.394;2023-07-02T20:52:20;8.30;;;3.97;;
3309;SDS011;1667;53.238;10.394;2023-07-02T20:57:19;9.20;;;3.57;;
3309;SDS011;1667;53.238;10.394;2023-07-02T21:02:19;8.70;;;3.53;;
3309;SDS011;1667;53.238;10.394;2023-07-02T21:07:18;7.00;;;3.17;;
3309;SDS011;1667;53.238;10.394;2023-07-02T21:12:16;5.53;;;3.13;;
3309;SDS011;1667;53.238;10.394;2023-07-02T21:22:31;7.27;;;3.60;;
3309;SDS011;1667;53.238;10.394;2023-07-02T21:27:29;6.30;;;3.10;;
3309;SDS011;1667;53.238;10.394;2023-07-02T21:32:29;8.30;;;4.17;;
3309;SDS011;1667;53.238;10.394;2023-07-02T21:37:29;4.63;;;2.90;;
3309;SDS011;1667;53.238;10.394;2023-07-02T21:42:28;10.67;;;3.87;;
3309;SDS011;1667;53.238;10.394;2023-07-02T21:54:16;6.27;;;2.57;;
3309;SDS011;1667;53.238;10.394;2023-07-02T21:59:15;8.40;;;2.80;;
3309;SDS011;1667;53.238;10.394;2023-07-02T22:04:22;4.37;;;3.27;;
3309;SDS011;1667;53.238;10.394;2023-07-02T22:09:22;4.70;;;3.37;;
3309;SDS011;1667;53.238;10.394;2023-07-02T22:14:21;7.07;;;3.40;;
3309;SDS011;1667;53.238;10.394;2023-07-02T22:19:19;9.20;;;5.20;;
3309;SDS011;1667;53.238;10.394;2023-07-02T22:24:18;9.27;;;3.00;;
3309;SDS011;1667;53.238;10.394;2023-07-02T22:29:18;3.50;;;2.63;;
3309;SDS011;1667;53.238;10.394;2023-07-02T22:34:16;4.00;;;2.70;;
3309;SDS011;1667;53.238;10.394;2023-07-02T22:39:14;8.53;;;3.90;;
3309;SDS011;1667;53.238;10.394;2023-07-02T22:44:13;4.03;;;2.80;;
3309;SDS011;1667;53.238;10.394;2023-07-02T22:49:14;5.20;;;2.90;;
3309;SDS011;1667;53.238;10.394;2023-07-02T22:54:13;4.70;;;3.20;;
3309;SDS011;1667;53.238;10.394;2023-07-02T22:59:11;7.47;;;2.70;;
3309;SDS011;1667;53.238;10.394;2023-07-02T23:04:10;6.80;;;2.67;;
3309;SDS011;1667;53.238;10.394;2023-07-02T23:09:10;5.27;;;3.30;;
3309;SDS011;1667;53.238;10.394;2023-07-02T23:14:08;11.30;;;3.57;;
3309;SDS011;1667;53.238;10.394;2023-07-02T23:19:07;7.17;;;2.80;;
3309;SDS011;1667;53.238;10.394;2023-07-02T23:24:06;6.17;;;2.90;;
3309;SDS011;1667;53.238;10.394;2023-07-02T23:29:06;5.53;;;2.90;;
3309;SDS011;1667;53.238;10.394;2023-07-02T23:34:05;7.10;;;3.20;;
3309;SDS011;1667;53.238;10.394;2023-07-02T23:39:04;4.47;;;3.23;;
3309;SDS011;1667;53.238;10.394;2023-07-02T23:44:02;5.93;;;3.00;;
3309;SDS011;1667;53.238;10.394;2023-07-02T23:49:02;4.57;;;2.67;;
3309;SDS011;1667;53.238;10.394;2023-07-02T23:54:01;5.13;;;3.60;;
3309;SDS011;1667;53.238;10.394;2023-07-02T23:58:59;4.20;;;3.13;;
